sensor_id;sensor_type;location;lat;lon;timestamp;P1;durP1;ratioP1;P2;durP2;ratioP2
51448;SDS011;37520;46.570;14.268;2022-08-19T00:07:13;10.68;;;3.50;;
51448;SDS011;37520;46.570;14.268;2022-08-19T00:17:15;8.43;;;2.95;;
51448;SDS011;37520;46.570;14.268;2022-08-19T00:27:16;8.68;;;3.38;;
51448;SDS011;37520;46.570;14.268;2022-08-19T00:37:22;7.68;;;2.72;;
51448;SDS011;37520;46.570;14.268;2022-08-19T00:47:24;9.50;;;2.97;;
51448;SDS011;37520;46.570;14.268;2022-08-19T00:57:35;10.32;;;3.30;;
51448;SDS011;37520;46.570;14.268;2022-08-19T01:07:40;7.78;;;2.92;;
51448;SDS011;37520;46.570;14.268;2022-08-19T01:17:43;6.72;;;2.85;;
51448;SDS011;37520;46.570;14.268;2022-08-19T01:27:48;10.07;;;2.97;;
51448;SDS011;37520;46.570;14.268;2022-08-19T01:37:52;10.80;;;3.20;;
51448;SDS011;37520;46.570;14.268;2022-08-19T01:47:56;6.18;;;2.90;;
51448;SDS011;37520;46.570;14.268;2022-08-19T01:57:59;8.98;;;2.97;;
51448;SDS011;37520;46.570;14.268;2022-08-19T02:08:03;7.85;;;3.28;;
51448;SDS011;37520;46.570;14.268;2022-08-19T02:18:04;10.25;;;3.65;;
51448;SDS011;37520;46.570;14.268;2022-08-19T02:28:06;10.48;;;3.28;;
51448;SDS011;37520;46.570;14.268;2022-08-19T02:38:07;9.95;;;3.05;;
51448;SDS011;37520;46.570;14.268;2022-08-19T02:48:26;6.40;;;2.80;;
51448;SDS011;37520;46.570;14.268;2022-08-19T02:58:28;8.43;;;2.72;;
51448;SDS011;37520;46.570;14.268;2022-08-19T03:08:30;7.07;;;2.40;;
51448;SDS011;37520;46.570;14.268;2022-08-19T03:18:31;8.43;;;2.72;;
51448;SDS011;37520;46.570;14.268;2022-08-19T03:28:33;7.30;;;2.05;;
51448;SDS011;37520;46.570;14.268;2022-08-19T03:38:36;8.30;;;2.88;;
51448;SDS011;37520;46.570;14.268;2022-08-19T03:48:39;6.72;;;2.40;;
51448;SDS011;37520;46.570;14.268;2022-08-19T03:58:42;6.80;;;2.42;;
51448;SDS011;37520;46.570;14.268;2022-08-19T04:08:44;6.90;;;2.58;;
51448;SDS011;37520;46.570;14.268;2022-08-19T04:18:47;6.47;;;2.42;;
51448;SDS011;37520;46.570;14.268;2022-08-19T04:28:49;9.10;;;3.08;;
51448;SDS011;37520;46.570;14.268;2022-08-19T04:38:56;7.13;;;2.30;;
51448;SDS011;37520;46.570;14.268;2022-08-19T04:48:59;6.38;;;2.80;;
51448;SDS011;37520;46.570;14.268;2022-08-19T04:59:02;5.13;;;1.83;;
51448;SDS011;37520;46.570;14.268;2022-08-19T05:09:30;5.32;;;1.75;;
51448;SDS011;37520;46.570;14.268;2022-08-19T05:19:32;5.80;;;2.33;;
51448;SDS011;37520;46.570;14.268;2022-08-19T05:29:52;5.63;;;2.30;;
51448;SDS011;37520;46.570;14.268;2022-08-19T05:39:53;5.22;;;2.00;;
51448;SDS011;37520;46.570;14.268;2022-08-19T05:49:55;6.05;;;2.03;;
51448;SDS011;37520;46.570;14.268;2022-08-19T05:59:56;6.47;;;2.40;;
51448;SDS011;37520;46.570;14.268;2022-08-19T06:10:01;4.03;;;1.80;;
51448;SDS011;37520;46.570;14.268;2022-08-19T06:20:05;4.95;;;2.10;;
51448;SDS011;37520;46.570;14.268;2022-08-19T06:30:09;5.78;;;2.03;;
51448;SDS011;37520;46.570;14.268;2022-08-19T06:40:12;4.32;;;1.83;;
51448;SDS011;37520;46.570;14.268;2022-08-19T06:50:13;4.60;;;1.90;;
51448;SDS011;37520;46.570;14.268;2022-08-19T07:00:15;4.47;;;1.45;;
51448;SDS011;37520;46.570;14.268;2022-08-19T07:10:16;4.43;;;1.50;;
51448;SDS011;37520;46.570;14.268;2022-08-19T07:20:18;3.67;;;1.30;;
51448;SDS011;37520;46.570;14.268;2022-08-19T07:30:19;4.53;;;1.27;;
51448;SDS011;37520;46.570;14.268;2022-08-19T07:40:21;3.80;;;1.23;;
51448;SDS011;37520;46.570;14.268;2022-08-19T07:50:22;6.68;;;1.90;;
51448;SDS011;37520;46.570;14.268;2022-08-19T08:00:24;4.97;;;2.00;;
51448;SDS011;37520;46.570;14.268;2022-08-19T08:10:26;4.43;;;1.70;;
51448;SDS011;37520;46.570;14.268;2022-08-19T08:20:27;4.43;;;1.38;;
51448;SDS011;37520;46.570;14.268;2022-08-19T08:30:30;4.63;;;1.40;;
51448;SDS011;37520;46.570;14.268;2022-08-19T08:40:44;4.15;;;1.30;;
51448;SDS011;37520;46.570;14.268;2022-08-19T08:50:52;4.43;;;1.40;;
51448;SDS011;37520;46.570;14.268;2022-08-19T09:00:56;4.18;;;1.30;;
51448;SDS011;37520;46.570;14.268;2022-08-19T09:10:58;4.10;;;1.40;;
51448;SDS011;37520;46.570;14.268;2022-08-19T09:21:01;4.22;;;1.13;;
51448;SDS011;37520;46.570;14.268;2022-08-19T09:31:02;3.97;;;1.10;;
51448;SDS011;37520;46.570;14.268;2022-08-19T09:41:11;4.95;;;1.27;;
51448;SDS011;37520;46.570;14.268;2022-08-19T09:51:16;2.92;;;1.52;;
51448;SDS011;37520;46.570;14.268;2022-08-19T10:01:24;4.05;;;1.10;;
51448;SDS011;37520;46.570;14.268;2022-08-19T10:11:28;4.53;;;1.10;;
51448;SDS011;37520;46.570;14.268;2022-08-19T10:21:30;4.72;;;1.30;;
51448;SDS011;37520;46.570;14.268;2022-08-19T10:31:33;5.10;;;1.30;;
51448;SDS011;37520;46.570;14.268;2022-08-19T10:41:36;3.42;;;1.13;;
51448;SDS011;37520;46.570;14.268;2022-08-19T10:51:39;3.00;;;0.98;;
51448;SDS011;37520;46.570;14.268;2022-08-19T11:02:00;4.47;;;1.02;;
51448;SDS011;37520;46.570;14.268;2022-08-19T11:12:04;3.50;;;0.90;;
51448;SDS011;37520;46.570;14.268;2022-08-19T11:22:07;4.40;;;1.30;;
51448;SDS011;37520;46.570;14.268;2022-08-19T11:32:10;5.15;;;1.25;;
51448;SDS011;37520;46.570;14.268;2022-08-19T11:42:19;3.75;;;1.40;;
51448;SDS011;37520;46.570;14.268;2022-08-19T11:52:39;3.40;;;1.30;;
51448;SDS011;37520;46.570;14.268;2022-08-19T12:02:40;4.68;;;1.45;;
51448;SDS011;37520;46.570;14.268;2022-08-19T12:12:43;4.38;;;1.40;;
51448;SDS011;37520;46.570;14.268;2022-08-19T12:22:49;3.83;;;1.20;;
51448;SDS011;37520;46.570;14.268;2022-08-19T12:32:51;5.15;;;1.40;;
51448;SDS011;37520;46.570;14.268;2022-08-19T12:42:53;5.07;;;1.20;;
51448;SDS011;37520;46.570;14.268;2022-08-19T12:52:55;4.85;;;1.35;;
51448;SDS011;37520;46.570;14.268;2022-08-19T13:02:58;6.03;;;1.42;;
51448;SDS011;37520;46.570;14.268;2022-08-19T13:13:00;3.67;;;1.20;;
51448;SDS011;37520;46.570;14.268;2022-08-19T13:23:08;3.92;;;1.10;;
51448;SDS011;37520;46.570;14.268;2022-08-19T13:33:10;3.03;;;1.10;;
51448;SDS011;37520;46.570;14.268;2022-08-19T13:43:11;2.95;;;1.13;;
51448;SDS011;37520;46.570;14.268;2022-08-19T13:53:14;3.38;;;1.10;;
51448;SDS011;37520;46.570;14.268;2022-08-19T14:03:17;2.90;;;1.10;;
51448;SDS011;37520;46.570;14.268;2022-08-19T14:13:20;4.10;;;1.35;;
51448;SDS011;37520;46.570;14.268;2022-08-19T14:23:23;2.42;;;0.80;;
51448;SDS011;37520;46.570;14.268;2022-08-19T14:33:24;2.20;;;0.80;;
51448;SDS011;37520;46.570;14.268;2022-08-19T14:43:25;1.95;;;0.60;;
51448;SDS011;37520;46.570;14.268;2022-08-19T14:53:27;2.10;;;0.85;;
51448;SDS011;37520;46.570;14.268;2022-08-19T15:03:29;1.30;;;0.60;;
51448;SDS011;37520;46.570;14.268;2022-08-19T15:13:30;4.60;;;0.60;;
51448;SDS011;37520;46.570;14.268;2022-08-19T15:23:34;1.45;;;0.50;;
51448;SDS011;37520;46.570;14.268;2022-08-19T15:33:36;2.38;;;0.73;;
51448;SDS011;37520;46.570;14.268;2022-08-19T15:43:38;2.20;;;0.50;;
51448;SDS011;37520;46.570;14.268;2022-08-19T15:53:43;1.42;;;0.90;;
51448;SDS011;37520;46.570;14.268;2022-08-19T16:03:44;1.77;;;0.50;;
51448;SDS011;37520;46.570;14.268;2022-08-19T16:14:04;1.27;;;0.40;;
51448;SDS011;37520;46.570;14.268;2022-08-19T16:24:10;2.83;;;0.43;;
51448;SDS011;37520;46.570;14.268;2022-08-19T16:34:12;4.10;;;0.63;;
51448;SDS011;37520;46.570;14.268;2022-08-19T16:44:15;2.42;;;0.63;;
51448;SDS011;37520;46.570;14.268;2022-08-19T16:54:20;2.97;;;0.60;;
51448;SDS011;37520;46.570;14.268;2022-08-19T17:04:22;2.50;;;0.60;;
51448;SDS011;37520;46.570;14.268;2022-08-19T17:14:23;1.80;;;0.55;;
51448;SDS011;37520;46.570;14.268;2022-08-19T17:24:25;2.10;;;0.50;;
51448;SDS011;37520;46.570;14.268;2022-08-19T17:34:26;4.47;;;0.77;;
51448;SDS011;37520;46.570;14.268;2022-08-19T17:44:28;3.42;;;0.60;;
51448;SDS011;37520;46.570;14.268;2022-08-19T17:54:29;5.20;;;0.70;;
51448;SDS011;37520;46.570;14.268;2022-08-19T18:04:31;3.17;;;0.60;;
51448;SDS011;37520;46.570;14.268;2022-08-19T18:14:34;5.20;;;0.90;;
51448;SDS011;37520;46.570;14.268;2022-08-19T18:24:38;5.07;;;0.88;;
51448;SDS011;37520;46.570;14.268;2022-08-19T18:34:43;2.75;;;0.80;;
51448;SDS011;37520;46.570;14.268;2022-08-19T18:44:45;2.00;;;0.73;;
51448;SDS011;37520;46.570;14.268;2022-08-19T18:55:05;3.80;;;0.80;;
51448;SDS011;37520;46.570;14.268;2022-08-19T19:05:07;3.65;;;0.80;;
51448;SDS011;37520;46.570;14.268;2022-08-19T19:15:12;3.28;;;0.52;;
51448;SDS011;37520;46.570;14.268;2022-08-19T19:25:13;3.75;;;0.75;;
51448;SDS011;37520;46.570;14.268;2022-08-19T19:35:14;2.45;;;0.57;;
51448;SDS011;37520;46.570;14.268;2022-08-19T19:45:16;4.03;;;0.85;;
51448;SDS011;37520;46.570;14.268;2022-08-19T19:55:18;5.15;;;0.88;;
51448;SDS011;37520;46.570;14.268;2022-08-19T20:05:20;5.22;;;0.85;;
51448;SDS011;37520;46.570;14.268;2022-08-19T20:15:22;4.38;;;0.95;;
51448;SDS011;37520;46.570;14.268;2022-08-19T20:25:24;2.05;;;0.70;;
51448;SDS011;37520;46.570;14.268;2022-08-19T20:35:25;5.10;;;0.90;;
51448;SDS011;37520;46.570;14.268;2022-08-19T20:45:27;5.47;;;1.27;;
51448;SDS011;37520;46.570;14.268;2022-08-19T20:55:28;2.72;;;0.75;;
51448;SDS011;37520;46.570;14.268;2022-08-19T21:05:30;7.15;;;1.00;;
51448;SDS011;37520;46.570;14.268;2022-08-19T21:15:32;4.82;;;0.80;;
51448;SDS011;37520;46.570;14.268;2022-08-19T21:25:34;2.25;;;0.80;;
51448;SDS011;37520;46.570;14.268;2022-08-19T21:35:35;4.85;;;0.90;;
51448;SDS011;37520;46.570;14.268;2022-08-19T21:45:37;5.05;;;1.00;;
51448;SDS011;37520;46.570;14.268;2022-08-19T21:55:38;4.78;;;0.93;;
51448;SDS011;37520;46.570;14.268;2022-08-19T22:05:39;6.75;;;1.25;;
51448;SDS011;37520;46.570;14.268;2022-08-19T22:15:40;5.25;;;1.10;;
51448;SDS011;37520;46.570;14.268;2022-08-19T22:25:43;6.28;;;1.15;;
51448;SDS011;37520;46.570;14.268;2022-08-19T22:35:45;4.38;;;1.05;;
51448;SDS011;37520;46.570;14.268;2022-08-19T22:45:48;5.07;;;1.00;;
51448;SDS011;37520;46.570;14.268;2022-08-19T22:55:50;2.28;;;1.00;;
51448;SDS011;37520;46.570;14.268;2022-08-19T23:05:52;3.55;;;0.90;;
51448;SDS011;37520;46.570;14.268;2022-08-19T23:15:55;5.43;;;1.25;;
51448;SDS011;37520;46.570;14.268;2022-08-19T23:25:59;4.47;;;1.42;;
51448;SDS011;37520;46.570;14.268;2022-08-19T23:36:04;4.25;;;1.15;;
51448;SDS011;37520;46.570;14.268;2022-08-19T23:46:11;4.25;;;1.55;;
51448;SDS011;37520;46.570;14.268;2022-08-19T23:56:13;6.35;;;1.38;;
